createdAt,value
2019-05-02T00:01:09.548Z,99.90
2019-05-02T00:03:42.912Z,99.90
2019-05-02T00:06:15.344Z,99.90
2019-05-02T00:08:47.949Z,99.90
2019-05-02T00:11:20.575Z,99.90
2019-05-02T00:13:53.407Z,99.90
2019-05-02T00:16:26.628Z,99.90
2019-05-02T00:19:00.013Z,99.90
2019-05-02T00:21:32.902Z,99.90
2019-05-02T00:24:08.830Z,99.90
2019-05-02T00:26:41.871Z,99.90
2019-05-02T00:29:14.430Z,99.90
2019-05-02T00:31:48.852Z,99.90
2019-05-02T00:34:21.233Z,99.90
2019-05-02T00:36:53.377Z,99.90
2019-05-02T00:39:25.423Z,99.90
2019-05-02T00:41:57.560Z,99.90
2019-05-02T00:44:29.585Z,99.90
2019-05-02T00:47:10.971Z,99.90
2019-05-02T00:49:43.439Z,99.90
2019-05-02T00:52:15.686Z,99.90
2019-05-02T00:54:47.901Z,99.90
2019-05-02T00:57:21.753Z,99.90
2019-05-02T00:59:53.845Z,99.90
2019-05-02T01:02:40.574Z,99.90
2019-05-02T01:05:33.711Z,99.90
2019-05-02T01:08:05.532Z,99.90
2019-05-02T01:10:37.657Z,99.90
2019-05-02T01:13:09.757Z,99.90
2019-05-02T01:15:44.155Z,99.90
2019-05-02T01:18:16.044Z,99.90
2019-05-02T01:20:48.141Z,99.90
2019-05-02T01:23:22.990Z,99.90
2019-05-02T01:25:54.590Z,99.90
2019-05-02T01:28:44.067Z,99.90
2019-05-02T01:31:23.554Z,99.90
2019-05-02T01:34:26.559Z,99.90
2019-05-02T01:37:07.329Z,99.90
2019-05-02T01:39:42.856Z,99.90
2019-05-02T01:42:13.961Z,99.90
2019-05-02T01:44:45.960Z,99.90
2019-05-02T01:47:18.149Z,99.90
2019-05-02T01:49:52.022Z,99.90
2019-05-02T01:52:24.958Z,99.90
2019-05-02T01:54:57.310Z,99.90
2019-05-02T01:57:29.775Z,99.90
2019-05-02T02:00:04.179Z,99.90
2019-05-02T02:02:35.743Z,99.90
2019-05-02T02:05:10.223Z,99.90
2019-05-02T02:07:42.315Z,99.90
2019-05-02T02:10:19.845Z,99.90
2019-05-02T02:13:02.812Z,99.90
2019-05-02T02:15:25.174Z,99.90
2019-05-02T02:17:56.819Z,99.90
2019-05-02T02:20:31.726Z,99.90
2019-05-02T02:23:21.196Z,99.90
2019-05-02T02:26:06.734Z,99.90
2019-05-02T02:28:38.413Z,99.90
2019-05-02T02:31:10.496Z,99.90
2019-05-02T02:33:47.647Z,99.90
2019-05-02T02:36:16.381Z,99.90
2019-05-02T02:38:48.945Z,99.90
2019-05-02T02:41:21.344Z,99.90
2019-05-02T02:44:21.471Z,99.90
2019-05-02T02:46:54.973Z,99.90
2019-05-02T02:49:27.262Z,99.90
2019-05-02T02:52:04.768Z,99.90
2019-05-02T02:54:36.697Z,99.90
2019-05-02T02:57:07.048Z,99.90
2019-05-02T02:59:39.091Z,99.90
2019-05-02T03:02:12.147Z,99.90
2019-05-02T03:04:46.361Z,99.90
2019-05-02T03:07:25.757Z,99.90
2019-05-02T03:09:52.335Z,99.90
2019-05-02T03:12:43.156Z,99.90
2019-05-02T03:15:21.086Z,99.90
2019-05-02T03:17:52.487Z,99.90
2019-05-02T03:20:24.528Z,99.90
2019-05-02T03:22:57.096Z,99.90
2019-05-02T03:25:50.803Z,99.90
2019-05-02T03:28:18.585Z,99.90
2019-05-02T03:30:48.580Z,99.90
2019-05-02T03:33:20.968Z,99.90
2019-05-02T03:35:53.818Z,99.90
2019-05-02T03:38:32.368Z,99.90
2019-05-02T03:41:00.537Z,99.90
2019-05-02T03:43:32.796Z,99.90
2019-05-02T03:46:04.862Z,99.90
2019-05-02T03:48:37.106Z,99.90
2019-05-02T03:51:19.237Z,99.90
2019-05-02T03:53:43.441Z,99.90
2019-05-02T03:56:15.630Z,99.90
2019-05-02T03:58:55.769Z,99.90
2019-05-02T04:01:22.604Z,99.90
2019-05-02T04:03:56.544Z,99.90
2019-05-02T04:06:28.626Z,99.90
2019-05-02T04:09:02.014Z,99.90
2019-05-02T04:11:39.072Z,99.90
2019-05-02T04:14:16.009Z,99.90
2019-05-02T04:16:48.570Z,99.90
2019-05-02T04:19:18.240Z,99.90
2019-05-02T04:21:54.843Z,99.90
2019-05-02T04:24:26.298Z,99.90
2019-05-02T04:26:58.669Z,99.90
2019-05-02T04:29:32.849Z,99.90
2019-05-02T04:32:11.818Z,99.90
2019-05-02T04:34:39.307Z,99.90
2019-05-02T04:37:12.030Z,99.90
2019-05-02T04:39:44.707Z,99.90
2019-05-02T04:42:21.998Z,99.90
2019-05-02T04:45:11.897Z,99.90
2019-05-02T04:47:28.886Z,99.90
2019-05-02T04:49:59.858Z,99.90
2019-05-02T04:52:40.775Z,99.90
2019-05-02T04:55:14.805Z,99.90
2019-05-02T04:57:47.377Z,99.90
2019-05-02T05:00:14.344Z,99.90
2019-05-02T05:02:48.394Z,99.80
2019-05-02T05:05:25.801Z,99.30
2019-05-02T05:07:54.147Z,98.70
2019-05-02T05:10:27.670Z,97.80
2019-05-02T05:13:00.408Z,97.50
2019-05-02T05:15:40.160Z,97.30
2019-05-02T05:18:10.620Z,96.80
2019-05-02T05:20:45.921Z,96.30
2019-05-02T05:23:21.467Z,95.40
2019-05-02T05:26:03.523Z,95.20
2019-05-02T05:28:35.011Z,95.10
2019-05-02T05:31:07.678Z,94.80
2019-05-02T05:33:39.634Z,94.20
2019-05-02T05:36:11.763Z,94.40
2019-05-02T05:38:43.835Z,94.20
2019-05-02T05:41:20.187Z,93.80
2019-05-02T05:43:53.503Z,93.80
2019-05-02T05:46:23.474Z,93.10
2019-05-02T05:48:55.525Z,92.70
2019-05-02T05:51:27.886Z,92.50
2019-05-02T05:54:03.177Z,92.40
2019-05-02T05:56:39.733Z,92.40
2019-05-02T05:59:07.918Z,92.40
2019-05-02T06:01:41.886Z,91.60
2019-05-02T06:04:18.453Z,91.20
2019-05-02T06:06:48.083Z,90.60
2019-05-02T06:09:20.342Z,90.40
2019-05-02T06:11:55.346Z,90.70
2019-05-02T06:14:26.434Z,90.60
2019-05-02T06:16:58.709Z,90.90
2019-05-02T06:19:32.055Z,90.90
2019-05-02T06:22:04.291Z,90.60
2019-05-02T06:24:36.650Z,90.60
2019-05-02T06:27:08.796Z,89.80
2019-05-02T06:29:40.888Z,89.10
2019-05-02T06:32:13.989Z,88.30
2019-05-02T06:34:47.669Z,88.60
2019-05-02T06:37:19.767Z,86.50
2019-05-02T06:39:51.766Z,86.30
2019-05-02T06:42:27.669Z,83.80
2019-05-02T06:44:59.844Z,83.20
2019-05-02T06:47:36.062Z,81.60
2019-05-02T06:50:08.317Z,81.30
2019-05-02T06:52:40.399Z,80.60
2019-05-02T06:55:13.159Z,81.80
2019-05-02T06:57:45.286Z,81.70
2019-05-02T07:00:18.212Z,83.60
2019-05-02T07:02:50.424Z,82.50
2019-05-02T07:05:27.175Z,84.90
2019-05-02T07:07:56.654Z,85.80
2019-05-02T07:10:37.834Z,86.00
2019-05-02T07:13:10.716Z,84.50
2019-05-02T07:15:58.635Z,81.50
2019-05-02T07:18:34.009Z,78.30
2019-05-02T07:21:12.115Z,77.50
2019-05-02T07:23:41.796Z,76.10
2019-05-02T07:26:15.599Z,73.80
2019-05-02T07:28:48.118Z,72.90
2019-05-02T07:31:20.197Z,71.90
2019-05-02T07:33:52.352Z,71.00
2019-05-02T07:36:24.629Z,70.70
2019-05-02T07:38:57.489Z,70.20
2019-05-02T07:41:30.627Z,69.60
2019-05-02T07:44:04.426Z,66.90
2019-05-02T07:46:36.795Z,65.80
2019-05-02T07:49:08.984Z,65.70
2019-05-02T07:51:41.197Z,65.30
2019-05-02T07:54:13.460Z,63.70
2019-05-02T07:56:48.666Z,62.30
2019-05-02T07:59:23.282Z,60.30
2019-05-02T08:01:53.533Z,59.30
2019-05-02T08:04:25.672Z,58.30
2019-05-02T08:06:57.665Z,56.70
2019-05-02T08:09:29.803Z,56.80
2019-05-02T08:12:01.940Z,56.10
2019-05-02T08:14:34.743Z,56.20
2019-05-02T08:17:16.117Z,55.00
2019-05-02T08:19:43.182Z,55.00
2019-05-02T08:22:15.484Z,54.20
2019-05-02T08:24:47.614Z,53.40
2019-05-02T08:27:41.241Z,53.40
2019-05-02T08:30:25.190Z,52.90
2019-05-02T08:32:57.460Z,52.80
2019-05-02T08:35:29.571Z,53.40
2019-05-02T08:38:01.680Z,52.80
2019-05-02T08:40:33.760Z,52.00
2019-05-02T08:43:09.274Z,51.80
2019-05-02T08:45:39.752Z,50.10
2019-05-02T08:48:11.817Z,50.80
2019-05-02T08:50:43.871Z,50.30
2019-05-02T08:53:19.970Z,50.30
2019-05-02T08:55:49.798Z,50.20
2019-05-02T08:58:21.915Z,50.10
2019-05-02T09:00:54.019Z,50.10
2019-05-02T09:03:26.109Z,50.60
2019-05-02T09:06:05.523Z,50.10
2019-05-02T09:08:31.993Z,50.50
2019-05-02T09:11:04.151Z,49.10
2019-05-02T09:13:36.215Z,48.20
2019-05-02T09:16:08.273Z,47.90
2019-05-02T09:18:50.052Z,47.90
2019-05-02T09:21:14.092Z,48.40
2019-05-02T09:23:46.194Z,47.80
2019-05-02T09:26:31.966Z,47.90
2019-05-02T09:28:56.327Z,47.70
2019-05-02T09:31:26.049Z,46.00
2019-05-02T09:33:58.212Z,46.70
2019-05-02T09:36:32.181Z,46.30
2019-05-02T09:39:06.197Z,46.50
2019-05-02T09:41:38.259Z,47.10
2019-05-02T09:44:14.677Z,45.50
2019-05-02T09:47:03.445Z,45.40
2019-05-02T09:49:49.060Z,45.30
2019-05-02T09:52:22.275Z,45.30
2019-05-02T09:54:54.443Z,46.00
2019-05-02T09:57:26.510Z,44.50
2019-05-02T09:59:58.598Z,43.70
2019-05-02T10:02:32.438Z,42.40
2019-05-02T10:05:04.535Z,43.20
2019-05-02T10:07:36.681Z,44.10
2019-05-02T10:10:12.589Z,43.70
2019-05-02T10:12:44.776Z,42.40
2019-05-02T10:15:19.533Z,43.60
2019-05-02T10:17:52.019Z,44.00
2019-05-02T10:20:34.182Z,43.20
2019-05-02T10:22:58.213Z,42.60
2019-05-02T10:25:38.349Z,43.10
2019-05-02T10:28:04.540Z,43.40
2019-05-02T10:30:37.514Z,43.40
2019-05-02T10:33:09.707Z,43.10
2019-05-02T10:35:43.696Z,43.80
2019-05-02T10:38:19.438Z,44.30
2019-05-02T10:40:54.556Z,45.50
2019-05-02T10:43:23.682Z,45.20
2019-05-02T10:46:01.841Z,44.70
2019-05-02T10:48:35.642Z,44.70
2019-05-02T10:51:26.156Z,45.60
2019-05-02T10:53:58.474Z,45.00
2019-05-02T10:56:32.441Z,44.40
2019-05-02T10:59:05.076Z,44.40
2019-05-02T11:02:07.044Z,45.20
2019-05-02T11:04:43.491Z,45.00
2019-05-02T11:07:16.958Z,45.00
2019-05-02T11:09:49.384Z,44.50
2019-05-02T11:12:41.869Z,45.50
2019-05-02T11:15:32.581Z,44.90
2019-05-02T11:18:05.336Z,44.40
2019-05-02T11:20:37.676Z,44.10
2019-05-02T11:23:09.764Z,43.70
2019-05-02T11:25:42.199Z,43.60
2019-05-02T11:28:14.716Z,43.60
2019-05-02T11:30:46.924Z,44.10
2019-05-02T11:33:19.218Z,44.10
2019-05-02T11:35:53.520Z,45.10
2019-05-02T11:38:25.982Z,46.10
2019-05-02T11:40:58.362Z,46.20
2019-05-02T11:43:32.510Z,45.20
2019-05-02T11:46:07.313Z,44.60
2019-05-02T11:48:38.184Z,44.80
2019-05-02T11:51:12.715Z,44.60
2019-05-02T11:53:44.709Z,45.30
2019-05-02T11:56:16.792Z,45.20
2019-05-02T11:58:50.253Z,45.20
2019-05-02T12:01:35.524Z,45.20
2019-05-02T12:03:56.809Z,44.90
2019-05-02T12:06:29.284Z,44.80
2019-05-02T12:09:02.006Z,44.10
2019-05-02T12:11:34.571Z,43.90
2019-05-02T12:14:07.015Z,43.90
2019-05-02T12:16:39.023Z,43.90
2019-05-02T12:19:14.436Z,42.70
2019-05-02T12:21:55.787Z,43.70
2019-05-02T12:24:28.000Z,41.80
2019-05-02T12:27:00.016Z,42.00
2019-05-02T12:29:33.485Z,41.70
2019-05-02T12:32:05.764Z,42.40
2019-05-02T12:34:37.799Z,42.20
2019-05-02T12:37:09.961Z,42.00
2019-05-02T12:39:42.610Z,41.40
2019-05-02T12:42:15.140Z,41.60
2019-05-02T12:44:47.576Z,41.40
2019-05-02T12:47:19.563Z,41.80
2019-05-02T12:49:52.033Z,41.90
2019-05-02T12:52:24.613Z,42.50
2019-05-02T12:54:56.672Z,42.20
2019-05-02T12:57:28.856Z,42.20
2019-05-02T13:00:01.840Z,41.80
2019-05-02T13:02:45.858Z,42.20
2019-05-02T13:05:18.156Z,41.00
2019-05-02T13:08:02.525Z,40.40
2019-05-02T13:10:54.059Z,40.40
2019-05-02T13:13:25.865Z,41.40
2019-05-02T13:16:00.839Z,40.40
2019-05-02T13:18:36.532Z,40.80
2019-05-02T13:21:07.990Z,40.80
2019-05-02T13:24:07.241Z,39.80
2019-05-02T13:26:37.129Z,40.50
2019-05-02T13:29:11.719Z,40.10
2019-05-02T13:31:53.147Z,39.00
2019-05-02T13:34:32.176Z,39.10
2019-05-02T13:37:05.170Z,39.50
2019-05-02T13:40:17.026Z,39.80
2019-05-02T13:42:59.388Z,39.70
2019-05-02T13:45:49.073Z,40.50
2019-05-02T13:48:21.816Z,39.60
2019-05-02T13:50:54.002Z,40.20
2019-05-02T13:53:28.193Z,41.20
2019-05-02T13:56:44.707Z,40.20
2019-05-02T13:59:16.320Z,40.40
2019-05-02T14:02:08.613Z,40.70
2019-05-02T14:04:41.522Z,40.60
2019-05-02T14:07:17.503Z,41.50
2019-05-02T14:09:57.962Z,41.10
2019-05-02T14:12:57.820Z,41.60
2019-05-02T14:15:41.955Z,41.80
2019-05-02T14:18:13.846Z,41.90
2019-05-02T14:20:45.916Z,41.90
2019-05-02T14:23:18.237Z,41.60
2019-05-02T14:26:02.091Z,40.70
2019-05-02T14:28:36.428Z,40.90
2019-05-02T14:31:08.988Z,41.00
2019-05-02T14:33:42.593Z,41.40
2019-05-02T14:36:15.169Z,40.90
2019-05-02T14:38:47.301Z,41.10
2019-05-02T14:41:38.935Z,41.80
2019-05-02T14:44:04.712Z,42.10
2019-05-02T14:46:39.277Z,41.80
2019-05-02T14:49:12.043Z,42.10
2019-05-02T14:51:44.336Z,42.10
2019-05-02T14:54:16.966Z,42.10
2019-05-02T14:57:03.016Z,42.30
2019-05-02T14:59:35.200Z,41.80
2019-05-02T15:02:13.105Z,41.40
2019-05-02T15:04:48.853Z,41.50
2019-05-02T15:07:24.836Z,41.80
2019-05-02T15:09:57.188Z,41.70
2019-05-02T15:12:28.005Z,42.30
2019-05-02T15:15:00.045Z,42.60
2019-05-02T15:17:36.318Z,42.40
2019-05-02T15:20:08.506Z,42.00
2019-05-02T15:22:42.459Z,42.30
2019-05-02T15:25:17.786Z,42.00
2019-05-02T15:28:02.463Z,41.90
2019-05-02T15:30:36.986Z,42.20
2019-05-02T15:33:12.538Z,43.20
2019-05-02T15:35:57.309Z,43.30
2019-05-02T15:38:48.591Z,42.00
2019-05-02T15:41:21.911Z,42.30
2019-05-02T15:43:54.173Z,42.60
2019-05-02T15:46:28.151Z,43.00
2019-05-02T15:49:01.865Z,44.10
2019-05-02T15:51:38.048Z,43.30
2019-05-02T15:54:08.819Z,43.40
2019-05-02T15:57:00.834Z,43.60
2019-05-02T15:59:42.431Z,44.00
2019-05-02T16:02:12.927Z,43.80
2019-05-02T16:04:46.916Z,43.90
2019-05-02T16:07:19.367Z,44.40
2019-05-02T16:09:56.367Z,44.60
2019-05-02T16:12:27.190Z,44.40
2019-05-02T16:14:59.806Z,44.80
2019-05-02T16:17:33.426Z,44.70
2019-05-02T16:20:13.407Z,44.70
2019-05-02T16:22:49.585Z,45.20
2019-05-02T16:25:24.325Z,44.80
2019-05-02T16:27:57.495Z,45.00
2019-05-02T16:30:28.119Z,44.70
2019-05-02T16:33:02.699Z,44.90
2019-05-02T16:35:35.897Z,44.70
2019-05-02T16:38:07.982Z,45.90
2019-05-02T16:40:41.853Z,45.50
2019-05-02T16:43:14.159Z,45.70
2019-05-02T16:45:54.229Z,45.90
2019-05-02T16:48:39.254Z,46.30
2019-05-02T16:51:27.714Z,46.60
2019-05-02T16:53:45.808Z,46.80
2019-05-02T16:56:18.026Z,47.10
2019-05-02T16:58:52.110Z,47.10
2019-05-02T17:01:27.451Z,47.20
2019-05-02T17:04:28.367Z,47.50
2019-05-02T17:07:05.803Z,49.10
2019-05-02T17:09:45.515Z,51.10
2019-05-02T17:12:17.827Z,52.90
2019-05-02T17:15:07.890Z,54.40
2019-05-02T17:17:39.928Z,53.60
2019-05-02T17:20:16.534Z,53.90
2019-05-02T17:22:50.192Z,53.90
2019-05-02T17:25:20.332Z,54.00
2019-05-02T17:27:53.526Z,54.50
2019-05-02T17:30:33.657Z,54.30
2019-05-02T17:33:01.893Z,54.80
2019-05-02T17:35:34.446Z,54.40
2019-05-02T17:38:06.950Z,54.90
2019-05-02T17:40:39.111Z,56.00
2019-05-02T17:43:11.311Z,55.20
2019-05-02T17:45:43.772Z,55.30
2019-05-02T17:48:17.819Z,55.60
2019-05-02T17:51:12.416Z,56.00
2019-05-02T17:53:49.610Z,56.60
2019-05-02T17:56:22.528Z,56.70
2019-05-02T17:58:58.164Z,57.00
2019-05-02T18:01:37.609Z,57.30
2019-05-02T18:04:12.532Z,57.50
2019-05-02T18:06:46.934Z,58.40
2019-05-02T18:09:17.893Z,57.60
2019-05-02T18:11:51.692Z,58.10
2019-05-02T18:14:24.317Z,58.70
2019-05-02T18:16:57.461Z,59.10
2019-05-02T18:19:31.592Z,59.50
2019-05-02T18:22:07.131Z,59.70
2019-05-02T18:24:42.799Z,59.40
2019-05-02T18:27:12.870Z,59.00
2019-05-02T18:29:45.798Z,59.00
2019-05-02T18:32:22.790Z,59.60
2019-05-02T18:34:52.157Z,60.00
2019-05-02T18:37:25.793Z,60.30
2019-05-02T18:39:57.918Z,60.50
2019-05-02T18:42:31.676Z,61.00
2019-05-02T18:45:08.395Z,61.40
2019-05-02T18:47:42.249Z,61.50
2019-05-02T18:50:36.802Z,61.70
2019-05-02T18:53:13.751Z,62.00
2019-05-02T18:55:46.419Z,62.00
2019-05-02T18:58:19.131Z,61.80
2019-05-02T19:00:52.109Z,62.70
2019-05-02T19:03:24.932Z,62.10
2019-05-02T19:05:58.509Z,62.10
2019-05-02T19:08:45.401Z,62.00
2019-05-02T19:11:12.172Z,63.00
2019-05-02T19:13:44.474Z,62.60
2019-05-02T19:16:19.304Z,64.30
2019-05-02T19:18:54.444Z,65.30
2019-05-02T19:21:26.530Z,66.00
2019-05-02T19:23:59.029Z,66.60
2019-05-02T19:26:32.597Z,66.80
2019-05-02T19:29:17.346Z,67.20
2019-05-02T19:31:52.724Z,68.50
2019-05-02T19:34:27.004Z,68.80
2019-05-02T19:37:03.029Z,71.40
2019-05-02T19:39:39.076Z,70.00
2019-05-02T19:42:12.264Z,70.20
2019-05-02T19:44:45.196Z,68.60
2019-05-02T19:47:17.792Z,71.40
2019-05-02T19:49:52.392Z,72.10
2019-05-02T19:52:28.611Z,72.00
2019-05-02T19:54:59.062Z,72.30
2019-05-02T19:57:32.396Z,71.20
2019-05-02T20:00:06.633Z,71.30
2019-05-02T20:02:42.333Z,69.70
2019-05-02T20:05:16.507Z,68.00
2019-05-02T20:07:47.730Z,68.80
2019-05-02T20:10:20.211Z,68.50
2019-05-02T20:12:52.901Z,68.70
2019-05-02T20:15:28.948Z,69.10
2019-05-02T20:18:04.715Z,69.20
2019-05-02T20:20:55.836Z,70.20
2019-05-02T20:23:31.388Z,74.80
2019-05-02T20:26:02.107Z,73.70
2019-05-02T20:28:34.406Z,75.00
2019-05-02T20:31:07.698Z,76.70
2019-05-02T20:33:40.298Z,74.80
2019-05-02T20:36:12.994Z,75.00
2019-05-02T20:38:45.324Z,74.50
2019-05-02T20:41:17.657Z,75.40
2019-05-02T20:43:51.540Z,74.50
2019-05-02T20:46:23.498Z,75.50
2019-05-02T20:48:56.013Z,75.90
2019-05-02T20:51:28.253Z,75.50
2019-05-02T20:54:01.908Z,75.50
2019-05-02T20:56:34.472Z,75.30
2019-05-02T20:59:06.819Z,74.50
2019-05-02T21:01:39.024Z,73.70
2019-05-02T21:04:12.079Z,74.30
2019-05-02T21:06:53.805Z,72.70
2019-05-02T21:09:53.794Z,73.40
2019-05-02T21:12:26.127Z,70.70
2019-05-02T21:14:58.402Z,71.20
2019-05-02T21:17:32.638Z,70.60
2019-05-02T21:20:04.643Z,70.80
2019-05-02T21:22:38.216Z,70.40
2019-05-02T21:25:13.032Z,69.30
2019-05-02T21:27:45.532Z,70.10
2019-05-02T21:30:24.482Z,69.80
2019-05-02T21:32:56.637Z,69.90
2019-05-02T21:35:29.317Z,69.90
2019-05-02T21:38:01.567Z,69.90
2019-05-02T21:40:34.200Z,70.00
2019-05-02T21:43:06.548Z,70.30
2019-05-02T21:45:38.884Z,71.50
2019-05-02T21:48:11.108Z,71.80
2019-05-02T21:50:51.575Z,71.70
2019-05-02T21:53:30.379Z,71.90
2019-05-02T21:56:08.522Z,72.90
2019-05-02T21:58:42.821Z,72.50
2019-05-02T22:01:15.242Z,73.00
2019-05-02T22:03:47.353Z,73.00
2019-05-02T22:06:19.504Z,73.80
2019-05-02T22:08:52.338Z,73.20
2019-05-02T22:11:24.632Z,73.90
2019-05-02T22:13:57.028Z,73.30
2019-05-02T22:16:29.183Z,74.10
2019-05-02T22:19:02.903Z,74.00
2019-05-02T22:21:35.344Z,74.30
2019-05-02T22:24:11.496Z,75.90
2019-05-02T22:26:43.445Z,76.00
2019-05-02T22:29:15.340Z,75.50
2019-05-02T22:31:47.392Z,74.70
2019-05-02T22:34:32.682Z,74.70
2019-05-02T22:37:06.533Z,74.60
2019-05-02T22:39:55.391Z,74.40
2019-05-02T22:42:27.668Z,73.70
2019-05-02T22:45:12.532Z,73.40
2019-05-02T22:47:44.892Z,73.50
2019-05-02T22:50:17.199Z,73.40
2019-05-02T22:52:49.605Z,73.40
2019-05-02T22:55:22.589Z,74.30
2019-05-02T22:57:56.420Z,75.70
2019-05-02T23:00:29.334Z,76.70
2019-05-02T23:03:01.885Z,77.60
2019-05-02T23:05:34.399Z,78.40
2019-05-02T23:08:06.953Z,78.40
2019-05-02T23:10:39.138Z,79.50
2019-05-02T23:13:12.986Z,79.30
2019-05-02T23:15:45.395Z,78.10
2019-05-02T23:18:17.420Z,78.10
2019-05-02T23:20:49.716Z,78.60
2019-05-02T23:23:24.262Z,79.50
2019-05-02T23:26:29.389Z,79.80
2019-05-02T23:29:02.344Z,80.20
2019-05-02T23:31:34.455Z,81.40
2019-05-02T23:34:07.170Z,81.50
2019-05-02T23:36:41.631Z,82.10
2019-05-02T23:39:14.063Z,82.70
2019-05-02T23:41:46.189Z,81.60
2019-05-02T23:44:18.371Z,81.60
2019-05-02T23:46:51.560Z,82.80
2019-05-02T23:49:23.833Z,85.80
2019-05-02T23:51:55.856Z,86.80
2019-05-02T23:54:27.949Z,87.50
2019-05-02T23:56:59.981Z,88.10
2019-05-02T23:59:32.153Z,88.10
